createdAt,value
2023-01-31T00:01:58.267Z,96447.84
2023-01-31T00:04:26.260Z,96451.95
2023-01-31T00:06:54.238Z,96456.93
2023-01-31T00:09:22.504Z,96453.24
2023-01-31T00:11:50.511Z,96442.90
2023-01-31T00:14:21.197Z,96442.21
2023-01-31T00:16:49.168Z,96439.85
2023-01-31T00:19:17.197Z,96442.08
2023-01-31T00:21:45.342Z,96444.80
2023-01-31T00:24:14.256Z,96446.31
2023-01-31T00:26:42.995Z,96443.33
2023-01-31T00:29:12.158Z,96443.23
2023-01-31T00:31:40.441Z,96440.60
2023-01-31T00:34:08.905Z,96437.95
2023-01-31T00:36:37.962Z,96442.30
2023-01-31T00:39:07.870Z,96445.55
2023-01-31T00:41:38.644Z,96442.81
2023-01-31T00:44:07.776Z,96446.55
2023-01-31T00:46:36.662Z,96446.57
2023-01-31T00:49:05.465Z,96442.34
2023-01-31T00:51:34.349Z,96443.56
2023-01-31T00:54:02.848Z,96444.29
2023-01-31T00:56:30.993Z,96443.48
2023-01-31T00:58:59.095Z,96445.02
2023-01-31T01:01:29.237Z,96446.79
2023-01-31T01:03:58.325Z,96440.88
2023-01-31T01:06:27.118Z,96439.22
2023-01-31T01:08:57.784Z,96443.48
2023-01-31T01:11:29.929Z,96436.75
2023-01-31T01:13:59.753Z,96440.25
2023-01-31T01:16:36.014Z,96442.98
2023-01-31T01:19:13.285Z,96435.80
2023-01-31T01:21:41.574Z,96438.36
2023-01-31T01:24:15.373Z,96436.48
2023-01-31T01:26:44.882Z,96434.94
2023-01-31T01:29:13.690Z,96435.45
2023-01-31T01:31:41.960Z,96439.46
2023-01-31T01:34:15.483Z,96440.45
2023-01-31T01:36:45.624Z,96441.67
2023-01-31T01:39:19.285Z,96440.97
2023-01-31T01:41:48.189Z,96442.29
2023-01-31T01:44:44.655Z,96443.08
2023-01-31T01:47:45.631Z,96443.86
2023-01-31T01:50:22.410Z,96442.87
2023-01-31T01:53:16.668Z,96446.09
2023-01-31T01:55:56.124Z,96453.23
2023-01-31T01:58:30.128Z,96457.01
2023-01-31T02:00:58.600Z,96461.08
2023-01-31T02:03:27.395Z,96462.31
2023-01-31T02:06:02.434Z,96461.41
2023-01-31T02:08:33.393Z,96467.95
2023-01-31T02:11:15.904Z,96467.98
2023-01-31T02:13:47.133Z,96467.38
2023-01-31T02:16:18.127Z,96471.02
2023-01-31T02:18:48.011Z,96474.09
2023-01-31T02:21:18.938Z,96475.77
2023-01-31T02:23:52.947Z,96478.70
2023-01-31T02:26:30.700Z,96474.73
2023-01-31T02:29:05.675Z,96478.83
2023-01-31T02:31:44.500Z,96483.65
2023-01-31T02:34:21.565Z,96484.92
2023-01-31T02:37:02.893Z,96481.20
2023-01-31T02:39:55.802Z,96487.17
2023-01-31T02:42:29.213Z,96492.30
2023-01-31T02:45:20.298Z,96497.45
2023-01-31T02:47:51.961Z,96498.33
2023-01-31T02:50:30.480Z,96497.64
2023-01-31T02:53:10.725Z,96497.46
2023-01-31T02:56:04.492Z,96493.77
2023-01-31T02:58:37.389Z,96494.09
2023-01-31T03:01:07.369Z,96492.54
2023-01-31T03:03:38.236Z,96489.15
2023-01-31T03:06:24.856Z,96481.15
2023-01-31T03:09:13.890Z,96483.08
2023-01-31T03:11:48.103Z,96489.74
2023-01-31T03:14:32.168Z,96487.70
2023-01-31T03:17:25.295Z,96485.83
2023-01-31T03:20:00.941Z,96486.61
2023-01-31T03:22:35.969Z,96489.73
2023-01-31T03:25:07.230Z,96495.27
2023-01-31T03:27:36.436Z,96503.87
2023-01-31T03:30:18.659Z,96511.26
2023-01-31T03:32:54.585Z,96514.07
2023-01-31T03:35:26.155Z,96515.27
2023-01-31T03:38:06.283Z,96518.20
2023-01-31T03:40:51.864Z,96513.48
2023-01-31T03:43:42.861Z,96505.52
2023-01-31T03:46:37.396Z,96505.38
2023-01-31T03:49:10.431Z,96503.02
2023-01-31T03:51:46.496Z,96509.11
2023-01-31T03:54:20.527Z,96508.64
2023-01-31T03:56:57.483Z,96502.21
2023-01-31T03:59:29.966Z,96508.02
2023-01-31T04:02:01.585Z,96512.84
2023-01-31T04:04:56.300Z,96514.21
2023-01-31T04:07:24.905Z,96506.42
2023-01-31T04:09:53.653Z,96510.52
2023-01-31T04:12:22.324Z,96514.62
2023-01-31T04:14:50.385Z,96518.91
2023-01-31T04:17:18.421Z,96521.31
2023-01-31T04:19:46.495Z,96521.17
2023-01-31T04:22:14.444Z,96521.17
2023-01-31T04:24:42.597Z,96526.57
2023-01-31T04:27:11.152Z,96533.77
2023-01-31T04:29:39.307Z,96534.45
2023-01-31T04:32:07.409Z,96529.30
2023-01-31T04:34:35.677Z,96524.98
2023-01-31T04:37:03.760Z,96527.85
2023-01-31T04:39:31.989Z,96530.20
2023-01-31T04:42:00.079Z,96530.45
2023-01-31T04:44:28.878Z,96529.36
2023-01-31T04:46:57.097Z,96532.38
2023-01-31T04:49:25.767Z,96529.55
2023-01-31T04:51:53.737Z,96526.08
2023-01-31T04:54:22.023Z,96526.07
2023-01-31T04:56:50.098Z,96528.77
2023-01-31T04:59:18.069Z,96537.16
2023-01-31T05:01:46.246Z,96543.19
2023-01-31T05:04:14.937Z,96541.64
2023-01-31T05:06:43.013Z,96538.40
2023-01-31T05:09:11.712Z,96531.89
2023-01-31T05:11:39.750Z,96533.05
2023-01-31T05:14:08.253Z,96528.26
2023-01-31T05:16:36.463Z,96533.71
2023-01-31T05:19:06.673Z,96537.49
2023-01-31T05:21:54.567Z,96538.17
2023-01-31T05:24:23.190Z,96544.14
2023-01-31T05:26:53.051Z,96544.11
2023-01-31T05:29:21.184Z,96545.48
2023-01-31T05:31:57.938Z,96544.77
2023-01-31T05:34:28.825Z,96539.45
2023-01-31T05:36:56.968Z,96546.08
2023-01-31T05:39:25.455Z,96553.89
2023-01-31T05:41:53.648Z,96556.90
2023-01-31T05:44:22.637Z,96549.38
2023-01-31T05:46:50.646Z,96549.84
2023-01-31T05:49:18.785Z,96546.11
2023-01-31T05:51:46.767Z,96549.73
2023-01-31T05:54:15.071Z,96549.17
2023-01-31T05:56:43.286Z,96548.86
2023-01-31T05:59:11.308Z,96554.03
2023-01-31T06:01:39.289Z,96558.20
2023-01-31T06:04:07.565Z,96566.39
2023-01-31T06:06:35.464Z,96566.81
2023-01-31T06:09:03.511Z,96573.74
2023-01-31T06:11:31.941Z,96576.89
2023-01-31T06:14:00.754Z,96578.02
2023-01-31T06:16:28.896Z,96577.73
2023-01-31T06:18:57.774Z,96586.96
2023-01-31T06:21:26.031Z,96589.39
2023-01-31T06:23:54.118Z,96593.23
2023-01-31T06:26:22.195Z,96590.09
2023-01-31T06:28:50.365Z,96587.19
2023-01-31T06:31:19.407Z,96589.98
2023-01-31T06:33:48.205Z,96594.83
2023-01-31T06:36:19.226Z,96598.33
2023-01-31T06:38:52.120Z,96598.40
2023-01-31T06:41:21.046Z,96598.64
2023-01-31T06:43:49.449Z,96604.84
2023-01-31T06:46:18.200Z,96610.91
2023-01-31T06:48:47.373Z,96614.88
2023-01-31T06:51:16.391Z,96614.73
2023-01-31T06:53:44.443Z,96611.70
2023-01-31T06:56:12.506Z,96613.35
2023-01-31T06:58:41.861Z,96607.92
2023-01-31T07:01:12.408Z,96609.11
2023-01-31T07:03:40.838Z,96611.87
2023-01-31T07:06:10.846Z,96611.72
2023-01-31T07:08:39.031Z,96613.13
2023-01-31T07:11:07.102Z,96614.13
2023-01-31T07:13:35.190Z,96616.61
2023-01-31T07:16:03.314Z,96618.76
2023-01-31T07:18:31.470Z,96623.86
2023-01-31T07:20:59.927Z,96630.82
2023-01-31T07:23:27.862Z,96638.10
2023-01-31T07:25:55.867Z,96651.70
2023-01-31T07:28:23.855Z,96660.67
2023-01-31T07:30:52.115Z,96661.47
2023-01-31T07:33:20.521Z,96665.48
2023-01-31T07:35:48.492Z,96667.08
2023-01-31T07:38:16.483Z,96666.88
2023-01-31T07:40:44.535Z,96665.79
2023-01-31T07:43:12.610Z,96663.32
2023-01-31T07:45:43.054Z,96666.62
2023-01-31T07:48:11.233Z,96670.27
2023-01-31T07:50:39.300Z,96677.02
2023-01-31T07:53:07.272Z,96682.23
2023-01-31T07:55:35.463Z,96683.23
2023-01-31T07:58:03.518Z,96690.21
2023-01-31T08:00:50.137Z,96690.85
2023-01-31T08:03:34.092Z,96696.55
2023-01-31T08:06:10.477Z,96700.48
2023-01-31T08:08:41.047Z,96701.67
2023-01-31T08:11:09.413Z,96703.12
2023-01-31T08:13:39.162Z,96704.27
2023-01-31T08:16:09.576Z,96702.90
2023-01-31T08:18:38.737Z,96706.80
2023-01-31T08:21:08.354Z,96709.90
2023-01-31T08:23:38.234Z,96715.48
2023-01-31T08:26:10.593Z,96723.75
2023-01-31T08:28:39.792Z,96727.40
2023-01-31T08:31:12.663Z,96728.14
2023-01-31T08:33:40.859Z,96728.75
2023-01-31T08:36:11.337Z,96728.27
2023-01-31T08:38:39.476Z,96729.36
2023-01-31T08:41:07.664Z,96734.36
2023-01-31T08:43:52.940Z,96734.70
2023-01-31T08:46:24.456Z,96732.42
2023-01-31T08:48:52.799Z,96732.38
2023-01-31T08:51:21.163Z,96731.13
2023-01-31T08:53:49.762Z,96734.30
2023-01-31T08:56:19.515Z,96740.39
2023-01-31T08:58:47.917Z,96744.11
2023-01-31T09:01:18.536Z,96746.63
2023-01-31T09:03:48.079Z,96751.33
2023-01-31T09:06:20.956Z,96761.69
2023-01-31T09:08:49.243Z,96770.52
2023-01-31T09:11:19.718Z,96772.88
2023-01-31T09:13:51.604Z,96771.92
2023-01-31T09:16:21.185Z,96775.63
2023-01-31T09:18:49.325Z,96778.13
2023-01-31T09:21:20.030Z,96779.08
2023-01-31T09:23:49.456Z,96778.44
2023-01-31T09:26:17.549Z,96775.46
2023-01-31T09:28:45.731Z,96776.23
2023-01-31T09:31:16.660Z,96780.41
2023-01-31T09:33:45.226Z,96779.34
2023-01-31T09:36:18.624Z,96776.73
2023-01-31T09:38:47.205Z,96784.38
2023-01-31T09:41:18.975Z,96781.10
2023-01-31T09:43:53.327Z,96780.86
2023-01-31T09:46:26.112Z,96783.02
2023-01-31T09:48:58.470Z,96776.66
2023-01-31T09:51:26.748Z,96775.75
2023-01-31T09:53:57.177Z,96781.25
2023-01-31T09:56:42.985Z,96779.91
2023-01-31T09:59:26.179Z,96785.35
2023-01-31T10:02:07.149Z,96779.86
2023-01-31T10:05:06.938Z,96783.70
2023-01-31T10:07:42.496Z,96777.15
2023-01-31T10:10:21.939Z,96773.92
2023-01-31T10:12:55.906Z,96775.33
2023-01-31T10:15:41.806Z,96777.02
2023-01-31T10:18:39.296Z,96773.26
2023-01-31T10:21:13.413Z,96776.14
2023-01-31T10:24:04.385Z,96776.65
2023-01-31T10:26:36.929Z,96782.15
2023-01-31T10:29:18.963Z,96782.63
2023-01-31T10:32:12.722Z,96778.87
2023-01-31T10:34:49.913Z,96778.88
2023-01-31T10:37:43.744Z,96785.31
2023-01-31T10:40:19.565Z,96782.63
2023-01-31T10:43:18.793Z,96783.33
2023-01-31T10:45:46.911Z,96783.17
2023-01-31T10:48:17.286Z,96782.48
2023-01-31T10:51:08.126Z,96784.05
2023-01-31T10:53:54.742Z,96785.76
2023-01-31T10:56:28.616Z,96783.17
2023-01-31T10:59:00.191Z,96784.23
2023-01-31T11:01:29.168Z,96783.74
2023-01-31T11:03:57.554Z,96781.83
2023-01-31T11:06:25.649Z,96781.30
2023-01-31T11:08:59.955Z,96776.52
2023-01-31T11:11:30.188Z,96780.27
2023-01-31T11:14:07.602Z,96778.02
2023-01-31T11:16:40.240Z,96770.98
2023-01-31T11:19:29.300Z,96770.94
2023-01-31T11:21:57.575Z,96768.45
2023-01-31T11:24:30.925Z,96768.89
2023-01-31T11:27:09.510Z,96771.12
2023-01-31T11:29:43.806Z,96771.39
2023-01-31T11:32:21.629Z,96772.91
2023-01-31T11:34:57.166Z,96772.70
2023-01-31T11:37:25.744Z,96774.73
2023-01-31T11:40:02.108Z,96775.15
2023-01-31T11:42:30.387Z,96776.58
2023-01-31T11:45:02.455Z,96776.86
2023-01-31T11:47:33.609Z,96780.23
2023-01-31T11:50:02.806Z,96784.52
2023-01-31T11:52:34.986Z,96782.95
2023-01-31T11:55:09.405Z,96790.91
2023-01-31T11:57:42.181Z,96788.50
2023-01-31T12:00:25.128Z,96789.20
2023-01-31T12:03:01.383Z,96791.12
2023-01-31T12:05:44.379Z,96795.43
2023-01-31T12:08:32.609Z,96791.10
2023-01-31T12:11:06.361Z,96793.98
2023-01-31T12:13:49.961Z,96804.96
2023-01-31T12:16:21.494Z,96802.14
2023-01-31T12:19:09.544Z,96805.05
2023-01-31T12:21:52.860Z,96808.16
2023-01-31T12:24:40.772Z,96808.67
2023-01-31T12:27:36.190Z,96815.64
2023-01-31T12:30:27.366Z,96815.80
2023-01-31T12:33:14.229Z,96820.77
2023-01-31T12:36:06.214Z,96827.42
2023-01-31T12:39:12.261Z,96831.52
2023-01-31T12:41:47.087Z,96826.23
2023-01-31T12:44:33.376Z,96833.66
2023-01-31T12:47:16.920Z,96840.16
2023-01-31T12:50:00.429Z,96843.83
2023-01-31T12:53:05.659Z,96841.63
2023-01-31T12:55:45.909Z,96839.31
2023-01-31T12:58:35.783Z,96840.71
2023-01-31T13:01:10.084Z,96843.77
2023-01-31T13:04:09.608Z,96843.94
2023-01-31T13:06:53.029Z,96839.88
2023-01-31T13:09:30.825Z,96844.99
2023-01-31T13:12:20.030Z,96843.11
2023-01-31T13:15:08.626Z,96843.11
2023-01-31T13:17:40.881Z,96846.16
2023-01-31T13:20:11.881Z,96845.05
2023-01-31T13:22:54.764Z,96846.55
2023-01-31T13:25:28.052Z,96844.29
2023-01-31T13:28:00.318Z,96845.58
2023-01-31T13:30:53.245Z,96840.46
2023-01-31T13:33:36.812Z,96838.63
2023-01-31T13:36:33.615Z,96843.80
2023-01-31T13:39:08.761Z,96839.80
2023-01-31T13:41:37.448Z,96845.52
2023-01-31T13:44:07.108Z,96844.18
2023-01-31T13:46:44.048Z,96846.86
2023-01-31T13:49:26.648Z,96848.36
2023-01-31T13:52:21.312Z,96849.27
2023-01-31T13:54:57.692Z,96849.39
2023-01-31T13:57:33.964Z,96853.10
2023-01-31T14:00:39.384Z,96852.70
2023-01-31T14:03:14.321Z,96850.73
2023-01-31T14:05:45.776Z,96847.23
2023-01-31T14:08:50.583Z,96845.66
2023-01-31T14:11:19.274Z,96847.18
2023-01-31T14:14:10.600Z,96849.73
2023-01-31T14:16:46.075Z,96849.05
2023-01-31T14:19:19.921Z,96849.34
2023-01-31T14:22:12.670Z,96851.54
2023-01-31T14:24:47.017Z,96852.70
2023-01-31T14:27:22.252Z,96853.99
2023-01-31T14:30:16.446Z,96860.81
2023-01-31T14:33:07.395Z,96865.91
2023-01-31T14:35:35.380Z,96868.30
2023-01-31T14:38:16.553Z,96874.15
2023-01-31T14:40:47.479Z,96875.20
2023-01-31T14:43:46.789Z,96875.16
2023-01-31T14:46:21.406Z,96876.36
2023-01-31T14:49:05.948Z,96881.30
2023-01-31T14:52:06.270Z,96879.58
2023-01-31T14:54:52.362Z,96883.81
2023-01-31T14:57:39.786Z,96887.04
2023-01-31T15:00:14.300Z,96890.69
2023-01-31T15:02:45.213Z,96888.99
2023-01-31T15:05:18.376Z,96894.38
2023-01-31T15:08:21.840Z,96901.55
2023-01-31T15:11:18.281Z,96905.14
2023-01-31T15:13:53.888Z,96910.95
2023-01-31T15:16:22.151Z,96913.70
2023-01-31T15:18:56.071Z,96913.17
2023-01-31T15:21:45.634Z,96912.63
2023-01-31T15:24:26.112Z,96910.37
2023-01-31T15:26:55.316Z,96912.11
2023-01-31T15:29:27.684Z,96910.74
2023-01-31T15:32:04.296Z,96913.33
2023-01-31T15:34:37.882Z,96914.67
2023-01-31T15:37:20.359Z,96916.76
2023-01-31T15:39:55.724Z,96915.20
2023-01-31T15:42:32.520Z,96915.36
2023-01-31T15:45:13.241Z,96918.23
2023-01-31T15:47:41.415Z,96920.05
2023-01-31T15:50:17.724Z,96921.03
2023-01-31T15:52:45.958Z,96921.76
2023-01-31T15:55:16.741Z,96924.69
2023-01-31T15:57:47.435Z,96929.63
2023-01-31T16:00:37.122Z,96931.48
2023-01-31T16:03:08.384Z,96930.66
2023-01-31T16:05:40.272Z,96934.05
2023-01-31T16:08:32.952Z,96933.23
2023-01-31T16:11:04.880Z,96936.14
2023-01-31T16:13:37.754Z,96937.87
2023-01-31T16:16:10.640Z,96940.98
2023-01-31T16:18:39.060Z,96941.04
2023-01-31T16:21:25.775Z,96943.29
2023-01-31T16:24:09.613Z,96945.04
2023-01-31T16:26:40.074Z,96946.26
2023-01-31T16:29:14.973Z,96949.77
2023-01-31T16:31:49.608Z,96947.48
2023-01-31T16:34:33.133Z,96947.34
2023-01-31T16:37:06.641Z,96946.20
2023-01-31T16:39:47.492Z,96949.17
2023-01-31T16:42:15.486Z,96948.17
2023-01-31T16:44:46.338Z,96946.80
2023-01-31T16:47:34.857Z,96948.16
2023-01-31T16:50:42.407Z,96948.08
2023-01-31T16:53:19.705Z,96947.61
2023-01-31T16:56:13.848Z,96951.02
2023-01-31T16:59:29.848Z,96952.42
2023-01-31T17:02:25.929Z,96958.37
2023-01-31T17:04:57.983Z,96960.33
2023-01-31T17:07:46.068Z,96957.44
2023-01-31T17:10:27.088Z,96951.17
2023-01-31T17:13:31.525Z,96949.38
2023-01-31T17:16:00.183Z,96946.20
2023-01-31T17:18:28.393Z,96946.55
2023-01-31T17:20:56.458Z,96949.16
2023-01-31T17:23:24.575Z,96954.20
2023-01-31T17:25:52.556Z,96948.89
2023-01-31T17:28:22.254Z,96946.42
2023-01-31T17:30:50.332Z,96947.33
2023-01-31T17:33:18.605Z,96954.91
2023-01-31T17:35:47.321Z,96952.08
2023-01-31T17:38:15.300Z,96956.17
2023-01-31T17:40:44.817Z,96959.73
2023-01-31T17:43:21.903Z,96957.50
2023-01-31T17:45:50.050Z,96956.29
2023-01-31T17:48:26.246Z,96955.00
2023-01-31T17:50:55.390Z,96957.15
2023-01-31T17:53:23.589Z,96953.90
2023-01-31T17:55:51.971Z,96956.39
2023-01-31T17:58:20.059Z,96959.08
2023-01-31T18:00:48.129Z,96962.96
2023-01-31T18:03:22.030Z,96964.08
2023-01-31T18:05:52.685Z,96966.60
2023-01-31T18:08:22.852Z,96965.70
2023-01-31T18:10:50.875Z,96966.03
2023-01-31T18:13:18.944Z,96971.45
2023-01-31T18:15:47.056Z,96972.02
2023-01-31T18:18:15.099Z,96974.56
2023-01-31T18:20:48.906Z,96973.79
2023-01-31T18:23:17.093Z,96976.12
2023-01-31T18:25:46.796Z,96975.23
2023-01-31T18:28:14.886Z,96974.16
2023-01-31T18:30:42.860Z,96974.85
2023-01-31T18:33:11.134Z,96973.62
2023-01-31T18:35:39.117Z,96975.29
2023-01-31T18:38:07.179Z,96972.31
2023-01-31T18:40:35.368Z,96975.52
2023-01-31T18:43:03.349Z,96977.19
2023-01-31T18:45:31.526Z,96975.37
2023-01-31T18:47:59.797Z,96972.73
2023-01-31T18:50:29.032Z,96975.24
2023-01-31T18:52:59.082Z,96974.13
2023-01-31T18:55:27.090Z,96971.59
2023-01-31T18:57:55.382Z,96973.84
2023-01-31T19:00:23.769Z,96974.21
2023-01-31T19:02:53.985Z,96972.52
2023-01-31T19:05:23.817Z,96974.31
2023-01-31T19:07:51.974Z,96979.86
2023-01-31T19:10:20.047Z,96981.13
2023-01-31T19:12:48.351Z,96984.96
2023-01-31T19:15:16.752Z,96983.52
2023-01-31T19:17:44.682Z,96984.79
2023-01-31T19:20:13.382Z,96989.64
2023-01-31T19:22:41.576Z,96990.26
2023-01-31T19:25:11.075Z,96988.10
2023-01-31T19:27:40.377Z,96990.16
2023-01-31T19:30:09.574Z,96986.42
2023-01-31T19:32:37.559Z,96989.88
2023-01-31T19:35:06.230Z,96993.67
2023-01-31T19:37:34.430Z,96994.30
2023-01-31T19:40:02.436Z,96993.51
2023-01-31T19:42:30.673Z,96993.23
2023-01-31T19:44:58.756Z,96992.76
2023-01-31T19:47:26.902Z,96992.66
2023-01-31T19:49:55.002Z,96992.74
2023-01-31T19:52:23.104Z,96991.96
2023-01-31T19:54:51.363Z,96987.34
2023-01-31T19:57:19.540Z,96988.81
2023-01-31T19:59:47.636Z,96996.02
2023-01-31T20:02:16.490Z,96992.03
2023-01-31T20:04:45.412Z,96991.83
2023-01-31T20:07:13.481Z,96991.70
2023-01-31T20:09:41.506Z,96995.40
2023-01-31T20:12:09.847Z,96997.02
2023-01-31T20:14:38.231Z,96998.27
2023-01-31T20:17:06.357Z,96996.75
2023-01-31T20:19:34.479Z,97000.52
2023-01-31T20:22:02.771Z,96997.33
2023-01-31T20:24:30.843Z,97000.45
2023-01-31T20:27:01.190Z,96996.29
2023-01-31T20:29:29.656Z,96998.38
2023-01-31T20:31:57.735Z,96999.50
2023-01-31T20:34:25.905Z,97001.59
2023-01-31T20:36:54.165Z,97002.77
2023-01-31T20:39:22.272Z,97005.38
2023-01-31T20:41:50.294Z,97007.16
2023-01-31T20:44:18.631Z,97011.13
2023-01-31T20:46:47.525Z,97010.14
2023-01-31T20:49:15.595Z,97016.86
2023-01-31T20:51:43.784Z,97016.89
2023-01-31T20:54:11.850Z,97014.19
2023-01-31T20:56:39.949Z,97014.23
2023-01-31T20:59:08.009Z,97013.77
2023-01-31T21:01:36.640Z,97005.42
2023-01-31T21:04:05.051Z,97008.17
2023-01-31T21:06:33.148Z,97004.39
2023-01-31T21:09:01.437Z,97001.87
2023-01-31T21:11:29.463Z,96997.95
2023-01-31T21:13:58.204Z,96997.41
2023-01-31T21:16:26.488Z,96995.08
2023-01-31T21:18:56.609Z,96989.32
2023-01-31T21:21:25.507Z,96983.69
2023-01-31T21:23:55.732Z,96980.83
2023-01-31T21:26:26.752Z,96979.52
2023-01-31T21:28:55.013Z,96982.40
2023-01-31T21:31:23.108Z,96982.06
2023-01-31T21:33:52.651Z,96979.13
2023-01-31T21:36:24.104Z,96972.48
2023-01-31T21:38:53.013Z,96972.64
2023-01-31T21:41:39.783Z,96969.25
2023-01-31T21:44:09.522Z,96970.42
2023-01-31T21:46:37.978Z,96967.35
2023-01-31T21:49:06.263Z,96968.70
2023-01-31T21:51:34.542Z,96970.92
2023-01-31T21:54:02.836Z,96968.23
2023-01-31T21:56:31.123Z,96968.73
2023-01-31T21:58:59.292Z,96966.83
2023-01-31T22:01:33.059Z,96966.98
2023-01-31T22:04:02.477Z,96966.85
2023-01-31T22:06:40.090Z,96962.63
2023-01-31T22:09:12.848Z,96964.89
2023-01-31T22:11:42.404Z,96963.89
2023-01-31T22:14:12.856Z,96961.05
2023-01-31T22:16:41.522Z,96955.44
2023-01-31T22:19:14.064Z,96953.73
2023-01-31T22:21:43.806Z,96950.67
2023-01-31T22:24:11.979Z,96949.85
2023-01-31T22:26:43.124Z,96940.52
2023-01-31T22:29:14.149Z,96940.23
2023-01-31T22:31:43.869Z,96941.99
2023-01-31T22:34:14.929Z,96938.77
2023-01-31T22:36:43.840Z,96942.02
2023-01-31T22:39:13.530Z,96939.33
2023-01-31T22:41:42.341Z,96937.98
2023-01-31T22:44:11.028Z,96938.01
2023-01-31T22:46:39.066Z,96934.48
2023-01-31T22:49:07.367Z,96931.42
2023-01-31T22:51:35.462Z,96935.73
2023-01-31T22:54:04.156Z,96932.71
2023-01-31T22:56:32.835Z,96930.34
2023-01-31T22:59:03.485Z,96930.38
2023-01-31T23:01:35.348Z,96929.90
2023-01-31T23:04:06.780Z,96925.84
2023-01-31T23:06:35.803Z,96924.54
2023-01-31T23:09:04.696Z,96924.05
2023-01-31T23:11:33.062Z,96917.60
2023-01-31T23:14:01.249Z,96914.56
2023-01-31T23:16:48.257Z,96909.02
2023-01-31T23:19:16.734Z,96906.15
2023-01-31T23:21:45.050Z,96903.79
2023-01-31T23:24:14.883Z,96898.69
2023-01-31T23:26:43.570Z,96896.49
2023-01-31T23:29:12.212Z,96893.27
2023-01-31T23:31:40.361Z,96889.20
2023-01-31T23:34:08.780Z,96885.71
2023-01-31T23:36:37.491Z,96886.09
2023-01-31T23:39:05.651Z,96887.00
2023-01-31T23:41:33.830Z,96884.97
2023-01-31T23:44:01.813Z,96883.54
2023-01-31T23:46:29.928Z,96889.08
2023-01-31T23:48:58.052Z,96896.69
2023-01-31T23:51:28.704Z,96893.34
2023-01-31T23:53:57.370Z,96893.30
2023-01-31T23:56:26.676Z,96894.38
2023-01-31T23:58:55.158Z,96893.09
